Chappell Hill, TX (77426)

8:55 AM CST on December 10, 2016 (GMT -0600)
5 Mi. North of Chappell Hill | | Change Station

Elev 203 ft 30.19 °N, 96.23 °W | Updated 7 minutes ago

Overcast
Overcast
41.5 °F
Feels Like 42 °F
N
0.0
Wind Variable Wind from East
Gusts 0.0 mph

Today
High -- | Low -- °F
--% Chance of Precip.
Yesterday
High -- | Low -- °F
Precip. -- in
Pressure 30.48 in
Visibility 10.0 miles
Clouds Overcast 7000 ft
Windchill 42 °F
Dew Point 33 °F
Humidity 73%
Rainfall 0.00 in
Snow Depth Not available.
7:10 AM 5:25 PM
Waxing Gibbous, 84% visible
METAR K11R 101435Z AUTO 10006KT 10SM OVC070 06/M01 A3048 RMK AO2 T00601010
Pressure 30.48 in
Visibility 10.0 miles
Clouds Overcast 7000 ft
Windchill 42 °F
Dew Point 33 °F
Humidity 73%
Rainfall 0.00 in
Snow Depth Not available.
7:10 AM 5:25 PM
Waxing Gibbous, 84% visible
METAR K11R 101435Z AUTO 10006KT 10SM OVC070 06/M01 A3048 RMK AO2 T00601010

10-Day Weather Forecast

Almanac

Astronomy

Dec. 10, 2016 Rise Set
Actual Time
Civil Twilight
Nautical Twilight
Astronomical Twilight
Moon
Length of Visible Light
Length of Day
Tomorrow will be .
, % of the Moon is Illuminated

Today's Extremes

State Highs State Lows

Community

WunderPhotos

Upload Photos

1,956,549 photos uploaded!

WunderBlog® & News

Nearby

Air Quality

  Air Quality AQ Index Pollutant
Not available.

Snow Depth

Station Depth Elevation

Earthquake Activity

City Distance Mag. Time & Date
Minimum magnitude displayed is 2.5.

Coastal Water Temperatures

Place Temperature

Stations

Nearby Weather Stations

Station Location Temp. Windchill Dew Point Humidity Wind Precip. Elev Updated Type
                   

Watches & Warnings

There are currently no watches in effect.